Terminal Aerodrome Forecast
Issued by NWS Pocatello, ID

Home | Current Version | Previous Version | Text Only | Print | Product List | Glossary On
Versions: 1 2 3 4 5 6 7 8 9 10 11 12 13
000
FTUS45 KPIH 291720
TAFIDA
TAF
KIDA 291720Z 2918/3018 22011KT P6SM VCSH SCT050 OVC080
     FM292000 23011KT P6SM -SHRA VCTS OVC040CB
     FM300300 20008KT P6SM VCSH OVC070
     FM301700 01014KT P6SM VCSH OVC060=

USA.gov is the U.S. government's official web portal to all federal, state and local government web resources and services.